Time;durP1;ratioP1;P1;durP2;ratioP2;P2;SDS_P1;SDS_P2;PMS_P1;PMS_P2;Temp;Humidity;BMP_temperature;BMP_pressure;BME280_temperature;BME280_humidity;BME280_pressure;Samples;Min_cycle;Max_cycle;Signal;HPM_P1;HPM_P2
2023/11/29 00:00:14;;;;;;;11.27;4.10;;;7.50;99.90;;;7.57;77.09;100152.59;5113190;28;20039;-70
2023/11/29 00:02:44;;;;;;;9.10;4.57;;;7.50;99.90;;;7.49;78.72;100137.75;5113009;28;20059;-70
2023/11/29 00:05:13;;;;;;;11.25;4.50;;;7.40;99.90;;;7.47;78.80;100148.25;5113739;28;20055;-70
2023/11/29 00:07:51;;;;;;;10.18;4.32;;;7.30;99.90;;;7.55;75.23;100130.69;5113186;28;20407;-70
2023/11/29 00:10:19;;;;;;;6.10;4.03;;;7.40;99.90;;;7.42;73.37;100126.34;5095095;28;20105;-70
2023/11/29 00:12:47;;;;;;;5.45;3.90;;;7.40;99.90;;;7.50;72.81;100121.94;5113283;28;20047;-70
2023/11/29 00:15:16;;;;;;;7.65;4.40;;;7.40;99.90;;;7.55;73.11;100106.16;5095080;28;20112;-70
2023/11/29 00:17:46;;;;;;;8.23;4.03;;;7.50;99.90;;;7.44;73.41;100113.19;5112957;28;20138;-69
2023/11/29 00:20:14;;;;;;;6.45;3.88;;;7.40;99.90;;;7.42;74.32;100107.94;5113530;28;20520;-70
2023/11/29 00:22:43;;;;;;;14.75;5.43;;;7.40;99.90;;;7.33;75.17;100108.00;5112915;28;20058;-69
2023/11/29 00:25:12;;;;;;;8.02;4.53;;;7.30;99.90;;;7.30;76.30;100102.72;5112888;28;20561;-69
2023/11/29 00:27:41;;;;;;;11.95;4.80;;;7.30;99.90;;;7.35;76.23;100097.44;5112966;28;20071;-70
2023/11/29 00:30:10;;;;;;;10.63;4.28;;;7.20;99.90;;;7.34;75.99;100093.09;5113176;28;20046;-70
2023/11/29 00:32:39;;;;;;;11.57;4.53;;;7.30;99.90;;;7.49;76.23;100093.88;5094853;28;20047;-70
2023/11/29 00:35:09;;;;;;;10.88;4.15;;;7.30;99.90;;;7.55;76.23;100095.63;5112847;28;20750;-69
2023/11/29 00:37:37;;;;;;;10.57;4.40;;;7.40;99.90;;;7.51;75.27;100083.34;5094968;28;20438;-69
2023/11/29 00:40:08;;;;;;;10.65;4.82;;;7.40;99.90;;;7.57;75.31;100078.91;5113023;28;20431;-69
2023/11/29 00:42:36;;;;;;;13.05;4.35;;;7.40;99.90;;;7.43;76.13;100067.63;5115237;28;20050;-70
2023/11/29 00:45:06;;;;;;;12.13;4.20;;;7.40;99.90;;;7.51;75.83;100070.22;5117051;28;20093;-71
2023/11/29 00:47:36;;;;;;;12.27;4.53;;;7.40;99.90;;;7.53;76.50;100074.56;5098845;28;20047;-70
2023/11/29 00:50:08;;;;;;;14.77;4.47;;;7.40;99.90;;;7.48;76.73;100042.16;5098789;28;20293;-70
2023/11/29 00:52:36;;;;;;;9.95;4.75;;;7.50;99.90;;;7.43;76.37;100033.41;5098660;28;20393;-70
2023/11/29 00:55:06;;;;;;;9.73;4.53;;;7.40;99.90;;;7.63;75.38;100070.13;5116890;28;20066;-70
2023/11/29 00:57:35;;;;;;;9.77;4.38;;;7.50;99.90;;;7.71;75.37;100061.31;5098599;28;20047;-70
2023/11/29 01:00:05;;;;;;;8.40;4.20;;;7.60;99.90;;;7.68;75.61;100052.56;5098489;28;20059;-69
2023/11/29 01:02:33;;;;;;;12.95;4.60;;;7.60;99.90;;;7.51;75.58;100047.38;5116912;28;20058;-70
2023/11/29 01:05:02;;;;;;;9.10;4.53;;;7.50;99.90;;;7.48;74.36;100044.78;5116667;28;20171;-70
2023/11/29 01:07:32;;;;;;;10.73;4.60;;;7.40;99.90;;;7.42;71.81;100052.69;5116572;28;20066;-70
2023/11/29 01:10:01;;;;;;;10.17;4.43;;;7.40;99.90;;;7.44;72.13;100065.84;5098366;28;20108;-69
2023/11/29 01:12:29;;;;;;;8.88;4.30;;;7.40;99.90;;;7.34;72.26;100048.38;5098276;28;20297;-69
2023/11/29 01:14:58;;;;;;;7.57;4.07;;;7.30;99.90;;;7.46;71.17;100049.16;5098181;28;20047;-69
2023/11/29 01:17:26;;;;;;;7.07;3.80;;;7.30;99.90;;;7.43;69.60;100054.47;5098216;28;20040;-70
2023/11/29 01:19:55;;;;;;;6.40;4.00;;;7.30;99.90;;;7.39;70.35;100047.47;5116506;28;20074;-70
2023/11/29 01:22:24;;;;;;;10.48;4.10;;;7.30;99.90;;;7.38;71.72;100035.19;5098127;28;20048;-70
2023/11/29 01:24:53;;;;;;;8.48;4.15;;;7.30;99.90;;;7.32;71.81;100037.84;5116131;28;20126;-70
2023/11/29 01:27:22;;;;;;;17.15;4.78;;;7.30;99.90;;;7.28;71.93;100028.22;5098148;28;20536;-70
2023/11/29 01:29:51;;;;;;;11.38;4.72;;;7.20;99.90;;;7.29;71.97;100029.97;5116049;28;20040;-69
2023/11/29 01:32:19;;;;;;;12.20;4.68;;;7.20;99.90;;;7.22;71.59;100029.13;5097794;28;20051;-70
2023/11/29 01:34:47;;;;;;;10.73;4.60;;;7.20;99.90;;;7.19;72.35;100026.50;5097861;28;20047;-69
2023/11/29 01:37:16;;;;;;;8.82;4.82;;;7.10;99.90;;;7.18;72.59;100021.28;5097793;28;20047;-69
2023/11/29 01:39:47;;;;;;;10.30;4.43;;;7.10;99.90;;;7.20;72.63;100024.78;5097778;28;20491;-69
2023/11/29 01:42:17;;;;;;;11.52;4.93;;;7.10;99.90;;;7.19;71.86;100020.38;5115903;28;20415;-69
2023/11/29 01:44:46;;;;;;;11.82;4.95;;;7.10;99.90;;;7.20;71.14;100030.03;5116089;28;20119;-69
2023/11/29 01:47:16;;;;;;;12.27;4.85;;;7.10;99.90;;;7.13;71.14;100010.75;5115669;28;20393;-69
2023/11/29 01:49:45;;;;;;;8.30;4.45;;;7.10;99.90;;;7.12;69.07;100034.44;5115964;28;20048;-69
2023/11/29 01:52:14;;;;;;;13.05;4.80;;;7.10;99.90;;;7.13;69.17;100023.91;5115833;28;20093;-69
2023/11/29 01:54:43;;;;;;;11.48;4.80;;;7.10;99.90;;;7.20;69.64;100030.88;5096520;28;20074;-69
2023/11/29 01:57:12;;;;;;;13.85;4.60;;;7.10;99.90;;;7.26;70.86;100032.59;5097454;28;20044;-69
2023/11/29 01:59:42;;;;;;;10.57;4.57;;;7.20;99.90;;;7.30;71.12;100032.59;5097355;28;20051;-69
2023/11/29 02:02:12;;;;;;;12.65;4.85;;;7.20;99.90;;;7.24;69.93;100031.72;5115223;28;20412;-69
2023/11/29 02:04:41;;;;;;;14.30;4.85;;;7.20;99.90;;;7.13;69.73;100026.53;5097328;28;20127;-70
2023/11/29 02:07:11;;;;;;;12.57;4.38;;;7.10;99.90;;;7.19;68.74;100025.63;5115560;28;20060;-70
2023/11/29 02:09:40;;;;;;;9.30;4.38;;;7.10;99.90;;;7.06;67.24;100002.91;5115338;28;20051;-69
2023/11/29 02:12:09;;;;;;;9.10;4.20;;;7.00;99.90;;;7.11;66.70;100019.53;5097106;28;20048;-69
2023/11/29 02:14:43;;;;;;;7.55;4.15;;;7.00;99.90;;;7.15;65.83;100008.13;5097087;28;20153;-69
2023/11/29 02:17:11;;;;;;;10.85;4.80;;;7.00;99.90;;;6.94;66.54;99992.44;5097073;28;20101;-69
2023/11/29 02:19:40;;;;;;;7.70;4.22;;;7.00;99.90;;;7.18;66.26;100034.41;5097052;28;20382;-69
2023/11/29 02:22:08;;;;;;;11.25;4.22;;;7.10;99.90;;;7.12;65.77;100021.28;5115238;28;20048;-69
2023/11/29 02:24:42;;;;;;;8.13;4.75;;;7.00;99.90;;;7.23;65.90;100032.63;5114955;28;20519;-70
2023/11/29 02:27:12;;;;;;;10.98;4.50;;;7.20;99.90;;;7.09;66.69;100008.13;5114965;28;20085;-69
2023/11/29 02:29:40;;;;;;;10.75;4.20;;;7.10;99.90;;;7.08;70.07;100024.81;5096902;28;20051;-69
2023/11/29 02:32:09;;;;;;;14.13;5.05;;;7.00;99.90;;;6.91;74.23;100010.88;5096761;28;20135;-69
2023/11/29 02:34:37;;;;;;;15.32;4.68;;;6.80;99.90;;;6.03;77.56;99885.03;5096620;28;20503;-69
2023/11/29 02:37:06;;;;;;;12.85;4.88;;;6.70;99.90;;;6.67;80.02;100008.28;5114983;28;20116;-69
2023/11/29 02:39:34;;;;;;;12.95;4.72;;;6.60;99.90;;;6.69;79.98;100009.16;5114629;28;20122;-69
2023/11/29 02:42:02;;;;;;;10.50;4.40;;;6.60;99.90;;;6.53;79.49;100007.44;5114836;28;20067;-69
2023/11/29 02:44:32;;;;;;;10.52;4.70;;;6.50;99.90;;;6.35;80.65;100032.88;5096555;28;20056;-70
2023/11/29 02:47:01;;;;;;;14.70;4.88;;;6.40;99.90;;;6.24;82.28;99999.63;5096552;28;20051;-69
2023/11/29 02:49:29;;;;;;;11.07;4.55;;;6.20;99.90;;;6.00;85.73;99991.78;5096402;28;20047;-69
2023/11/29 02:51:57;;;;;;;15.35;5.22;;;6.00;99.90;;;6.04;87.04;99980.41;5114660;28;20039;-69
2023/11/29 02:54:26;;;;;;;14.68;6.22;;;5.90;99.90;;;6.10;87.33;99956.75;5114264;28;20553;-69
2023/11/29 02:56:54;;;;;;;16.70;5.22;;;6.00;99.90;;;6.13;87.26;99967.28;5114195;28;20446;-69
2023/11/29 02:59:22;;;;;;;19.48;6.03;;;6.00;99.90;;;6.28;86.79;99960.25;5114508;28;20052;-69
2023/11/29 03:01:52;;;;;;;6.60;4.10;;;6.10;99.90;;;6.20;87.40;99962.00;5095827;28;20055;-68
2023/11/29 03:04:21;;;;;;;9.25;4.97;;;6.10;99.90;;;6.26;86.97;99966.38;5096147;28;20047;-69
2023/11/29 03:06:49;;;;;;;10.52;4.20;;;6.10;99.90;;;6.41;86.92;99968.97;5095103;28;20480;-69
2023/11/29 03:09:17;;;;;;;11.45;4.75;;;6.30;99.90;;;6.39;86.33;99966.34;5096027;28;20044;-69
2023/11/29 03:11:46;;;;;;;13.63;4.53;;;6.30;99.90;;;6.37;86.51;99965.47;5114329;28;20426;-69
2023/11/29 03:14:14;;;;;;;8.15;4.43;;;6.30;99.90;;;6.46;86.06;99950.56;5095578;28;20062;-69
2023/11/29 03:16:43;;;;;;;10.10;5.25;;;6.40;99.90;;;6.48;85.87;99943.56;5095916;28;20047;-69
2023/11/29 03:19:13;;;;;;;10.82;5.00;;;6.40;99.90;;;6.49;84.79;99942.66;5113911;28;20043;-69
2023/11/29 03:21:41;;;;;;;16.00;4.97;;;6.40;99.90;;;6.52;83.98;99942.69;5113880;28;20036;-69
2023/11/29 03:24:10;;;;;;;11.60;5.10;;;6.40;99.90;;;6.64;83.19;99934.75;5095768;28;20047;-69
2023/11/29 03:26:42;;;;;;;11.75;4.50;;;6.50;99.90;;;6.73;82.95;99950.47;5113999;28;20066;-68
2023/11/29 03:29:11;;;;;;;10.02;4.10;;;6.60;99.90;;;6.76;82.44;99929.44;5113777;28;20039;-69
2023/11/29 03:31:39;;;;;;;9.98;5.00;;;6.70;99.90;;;6.81;82.15;99943.44;5095680;28;20040;-69
2023/11/29 03:34:08;;;;;;;12.15;4.88;;;6.70;99.90;;;6.67;82.51;99922.47;5095485;28;20039;-69
2023/11/29 03:36:39;;;;;;;9.63;4.57;;;6.70;99.90;;;6.89;81.56;99937.25;5113862;28;20032;-69
2023/11/29 03:39:09;;;;;;;14.02;5.00;;;6.80;99.90;;;6.89;82.61;99918.00;5113824;28;20054;-69
2023/11/29 03:41:37;;;;;;;15.70;4.75;;;6.80;99.90;;;7.05;82.80;99956.44;5114146;28;20088;-69
2023/11/29 03:44:06;;;;;;;13.38;4.75;;;6.90;99.90;;;6.99;84.55;99967.00;5113759;28;20084;-69
2023/11/29 03:46:34;;;;;;;14.80;4.38;;;6.90;99.90;;;6.45;86.66;99947.06;5113430;28;20047;-69
2023/11/29 03:49:03;;;;;;;7.75;4.40;;;6.50;99.90;;;5.89;90.11;99938.41;5113677;28;20043;-69
2023/11/29 03:51:32;;;;;;;7.57;4.20;;;6.00;99.90;;;5.82;91.75;99962.88;5113652;28;20085;-69
2023/11/29 03:54:10;;;;;;;5.38;4.00;;;5.70;99.90;;;5.80;92.76;99956.75;5113281;28;20067;-69
2023/11/29 03:56:39;;;;;;;8.73;3.60;;;5.60;99.90;;;5.48;93.69;99961.97;5113598;28;20044;-69
2023/11/29 03:59:08;;;;;;;11.48;3.88;;;5.40;99.90;;;5.43;94.56;99953.25;5095202;28;20035;-69
2023/11/29 04:01:36;;;;;;;7.47;4.13;;;5.40;99.90;;;5.20;94.67;99940.09;5113204;28;20450;-69
2023/11/29 04:04:05;;;;;;;11.40;4.30;;;5.20;99.90;;;5.09;95.23;99914.75;5113138;28;20458;-69
2023/11/29 04:06:34;;;;;;;11.07;4.18;;;5.10;99.90;;;5.03;96.81;99938.31;5113470;28;20035;-69
2023/11/29 04:09:04;;;;;;;12.68;3.92;;;5.10;99.90;;;5.18;97.53;99933.09;5113161;28;20477;-69
2023/11/29 04:11:34;;;;;;;6.60;3.83;;;5.00;99.90;;;5.14;96.36;99918.22;5095129;28;20061;-69
2023/11/29 04:14:02;;;;;;;6.90;3.65;;;5.10;99.90;;;5.13;94.23;99899.00;5113274;28;20112;-69
2023/11/29 04:16:30;;;;;;;7.28;3.55;;;5.10;99.90;;;5.15;90.65;99901.66;5094569;28;20146;-69
2023/11/29 04:18:59;;;;;;;7.28;3.78;;;5.10;99.90;;;5.41;89.09;99918.28;5113287;28;20043;-69
2023/11/29 04:21:31;;;;;;;4.28;3.65;;;5.30;99.90;;;5.46;88.75;99896.44;5094938;28;20047;-69
2023/11/29 04:24:00;;;;;;;6.72;3.72;;;5.50;99.90;;;5.50;88.96;99886.81;5113353;28;20250;-69
2023/11/29 04:26:33;;;;;;;8.60;3.90;;;5.50;99.90;;;5.71;89.64;99902.53;5113219;28;20118;-69
2023/11/29 04:29:04;;;;;;;12.00;4.40;;;5.60;99.90;;;5.79;89.50;99884.19;5095036;28;20139;-69
2023/11/29 04:31:35;;;;;;;9.18;3.80;;;5.70;99.90;;;5.75;90.27;99861.47;5094969;28;20093;-69
2023/11/29 04:34:03;;;;;;;;;;;5.80;99.90;;;5.95;90.21;99862.31;5095021;28;20048;-69
2023/11/29 04:36:45;;;;;;;8.57;3.95;;;5.90;99.90;;;6.09;90.23;99876.28;5113175;28;20014;-69
2023/11/29 04:39:18;;;;;;;9.90;4.38;;;6.00;99.90;;;6.20;90.61;99874.50;5094895;28;20517;-69
2023/11/29 04:41:48;;;;;;;9.60;4.22;;;6.10;99.90;;;6.21;91.07;99884.97;5094902;28;20209;-69
2023/11/29 04:44:17;;;;;;;20.05;4.85;;;6.10;99.90;;;6.11;92.00;99878.03;5113120;28;20247;-69
2023/11/29 04:46:45;;;;;;;10.95;4.57;;;6.10;99.90;;;6.13;92.93;99886.78;5112754;28;20123;-69
2023/11/29 04:49:14;;;;;;;18.00;5.18;;;6.10;99.90;;;6.09;91.78;99874.53;5094715;28;20543;-69
2023/11/29 04:51:42;;;;;;;13.90;4.57;;;6.10;99.90;;;6.14;89.35;99882.38;5112775;28;20076;-69
2023/11/29 04:54:11;;;;;;;8.57;4.03;;;6.10;99.90;;;6.38;87.72;99887.56;5112585;28;20051;-69
2023/11/29 04:56:39;;;;;;;9.82;4.22;;;6.20;99.90;;;6.46;85.74;99870.03;5112664;28;20039;-69
2023/11/29 04:59:09;;;;;;;11.63;4.05;;;6.40;99.90;;;6.59;85.17;99878.72;5113212;28;20052;-69
2023/11/29 05:01:37;;;;;;;12.23;3.80;;;6.40;99.90;;;6.54;85.02;99886.63;5112831;28;20473;-69
2023/11/29 05:04:06;;;;;;;8.80;4.13;;;6.40;99.90;;;6.61;85.35;99882.22;5112619;28;20115;-69
2023/11/29 05:06:34;;;;;;;9.35;4.70;;;6.50;99.90;;;6.35;84.45;99871.81;5112612;28;20044;-69
2023/11/29 05:09:05;;;;;;;4.82;3.65;;;6.40;99.90;;;6.36;81.14;99879.72;5094596;28;20075;-69
2023/11/29 05:11:34;;;;;;;7.43;3.85;;;6.30;99.90;;;6.39;80.09;99884.06;5112608;28;20507;-69
2023/11/29 05:14:02;;;;;;;7.80;3.72;;;6.30;99.90;;;6.28;79.66;99880.59;5113069;28;20078;-69
2023/11/29 05:16:33;;;;;;;6.10;3.65;;;6.20;99.90;;;6.52;78.52;99885.78;5112405;28;20051;-70
2023/11/29 05:19:02;;;;;;;;;;;6.40;99.90;;;6.55;79.23;99875.25;5094927;28;20048;-70
2023/11/29 05:21:31;;;;;;;6.97;3.55;;;6.40;99.90;;;6.54;79.53;99883.13;5112433;28;20010;-69
2023/11/29 05:23:59;;;;;;;9.45;4.50;;;6.40;99.90;;;6.52;80.81;99877.91;5112576;28;20071;-69
2023/11/29 05:26:27;;;;;;;11.95;4.05;;;6.40;99.90;;;6.61;82.43;99879.59;5112725;28;20097;-70
2023/11/29 05:28:56;;;;;;;12.45;4.95;;;6.50;99.90;;;6.57;83.41;99876.09;5113450;28;20055;-69
2023/11/29 05:31:24;;;;;;;15.27;4.38;;;6.50;99.90;;;6.61;84.04;99900.59;5098060;28;20096;-70
2023/11/29 05:33:54;;;;;;;11.13;4.50;;;6.50;99.90;;;6.68;84.42;99921.59;5116228;28;20115;-69
2023/11/29 05:36:22;;;;;;;5.20;3.40;;;6.60;99.90;;;6.66;82.37;99922.50;5115884;28;20040;-69
2023/11/29 05:38:51;;;;;;;5.07;3.33;;;6.60;99.90;;;6.86;80.85;99924.13;5116152;28;20044;-70
2023/11/29 05:41:19;;;;;;;5.43;3.95;;;6.70;99.90;;;6.46;81.60;99919.94;5115785;28;20036;-69
2023/11/29 05:43:48;;;;;;;7.53;4.53;;;6.50;99.90;;;6.70;82.06;99916.31;5116304;28;20039;-70
2023/11/29 05:46:16;;;;;;;7.72;3.90;;;6.60;99.90;;;6.48;83.10;99919.94;5115949;28;20050;-69
2023/11/29 05:48:45;;;;;;;13.25;4.50;;;6.40;99.90;;;6.28;85.52;99928.75;5115985;28;20044;-68
2023/11/29 05:51:14;;;;;;;13.77;4.68;;;6.20;99.90;;;6.12;88.00;99923.50;5115626;28;20500;-69
2023/11/29 05:53:43;;;;;;;17.63;5.00;;;6.10;99.90;;;6.06;89.87;99913.91;5115667;28;20048;-69
2023/11/29 05:56:11;;;;;;;11.95;4.68;;;6.00;99.90;;;5.92;90.83;99878.91;5115704;28;20476;-69
2023/11/29 05:58:42;;;;;;;13.70;5.05;;;6.00;99.90;;;5.98;91.97;99918.28;5115482;28;20039;-69
2023/11/29 06:01:11;;;;;;;10.65;4.38;;;5.90;99.90;;;5.84;93.17;99920.06;5115385;28;20493;-69
2023/11/29 06:03:39;;;;;;;10.95;4.57;;;5.80;99.90;;;5.74;93.68;99933.16;5115656;28;20048;-69
2023/11/29 06:06:08;;;;;;;10.60;5.50;;;5.70;99.90;;;5.82;93.37;99921.78;5115616;28;20131;-69
2023/11/29 06:08:39;;;;;;;17.92;4.70;;;5.70;99.90;;;5.74;93.66;99927.91;5115547;28;20059;-69
2023/11/29 06:11:09;;;;;;;12.77;5.05;;;5.60;99.90;;;5.59;93.85;99913.06;5115315;28;20047;-69
2023/11/29 06:13:37;;;;;;;12.90;4.82;;;5.70;99.90;;;5.81;94.49;99933.13;5115471;28;20058;-69
2023/11/29 06:16:06;;;;;;;11.77;4.88;;;5.70;99.90;;;5.96;93.76;99943.66;5115511;28;20044;-70
2023/11/29 06:18:35;;;;;;;13.15;4.43;;;5.80;99.90;;;5.95;93.19;99943.66;5115108;28;20442;-70
2023/11/29 06:21:05;;;;;;;;;;;5.80;99.90;;;6.01;93.43;99941.91;5097499;28;20055;-70
2023/11/29 06:23:34;;;;;;;11.02;4.15;;;5.80;99.90;;;6.24;93.21;99941.88;5115284;28;19919;-70
2023/11/29 06:26:05;;;;;;;16.67;5.00;;;6.00;99.90;;;6.32;92.37;99935.72;5114931;28;20054;-70
2023/11/29 06:28:35;;;;;;;9.55;4.40;;;6.20;99.90;;;6.29;92.23;99940.97;5115487;28;20046;-70
2023/11/29 06:31:04;;;;;;;12.75;4.65;;;6.20;99.90;;;6.19;92.46;99954.13;5096908;28;20054;-69
2023/11/29 06:33:32;;;;;;;13.02;4.60;;;6.10;99.90;;;6.18;93.40;99963.75;5114826;28;20097;-69
2023/11/29 06:36:03;;;;;;;14.70;5.15;;;6.10;99.90;;;6.07;93.73;99957.66;5114617;28;20078;-69
2023/11/29 06:38:32;;;;;;;10.23;4.55;;;6.00;99.90;;;6.13;93.47;99965.53;5114765;28;20039;-69
2023/11/29 06:41:00;;;;;;;11.35;4.60;;;6.00;99.90;;;6.27;93.17;99955.84;5114294;28;20126;-69
2023/11/29 06:43:31;;;;;;;17.02;5.35;;;6.10;99.90;;;6.11;93.11;99959.41;5115132;28;20035;-69
2023/11/29 06:46:01;;;;;;;12.77;4.37;;;6.00;99.90;;;6.38;92.20;99977.75;5096493;28;20074;-69
2023/11/29 06:48:31;;;;;;;17.75;4.53;;;6.20;99.90;;;6.18;91.51;99961.13;5115047;28;20280;-69
2023/11/29 06:51:01;;;;;;;11.98;4.70;;;6.20;99.90;;;6.31;91.09;99978.59;5114962;28;20089;-69
2023/11/29 06:53:33;;;;;;;12.57;5.30;;;6.20;99.90;;;6.61;90.46;99989.91;5096436;28;20048;-69
2023/11/29 06:56:02;;;;;;;15.75;4.57;;;6.40;99.90;;;6.79;89.12;99980.25;5114362;28;20089;-69
2023/11/29 06:58:32;;;;;;;15.73;4.80;;;6.70;99.90;;;6.97;88.01;99989.78;5114880;28;20387;-69
2023/11/29 07:01:00;;;;;;;15.82;4.57;;;6.80;99.90;;;7.05;86.98;99994.16;5114344;28;20373;-69
2023/11/29 07:03:29;;;;;;;15.07;4.97;;;6.90;99.90;;;7.23;86.48;99991.44;5114344;28;20511;-69
2023/11/29 07:05:58;;;;;;;11.48;4.80;;;7.10;99.90;;;7.09;85.18;99969.59;5114491;28;20048;-70
2023/11/29 07:08:26;;;;;;;10.88;4.80;;;7.10;99.90;;;7.40;84.44;100000.97;5096098;28;20043;-69
2023/11/29 07:10:57;;;;;;;16.75;4.93;;;7.30;99.90;;;7.48;83.59;100010.56;5114076;28;20051;-70
2023/11/29 07:13:26;;;;;;;11.85;4.35;;;7.30;99.90;;;7.63;82.96;100010.47;5114088;28;20097;-69
2023/11/29 07:15:57;;;;;;;17.83;4.65;;;7.50;99.90;;;7.56;82.58;100014.03;5113811;28;20067;-70
2023/11/29 07:18:26;;;;;;;12.38;4.60;;;7.60;99.90;;;7.66;83.06;100013.09;5114219;28;20051;-70
2023/11/29 07:20:55;;;;;;;12.57;4.43;;;7.50;99.90;;;7.65;82.33;100016.59;5113809;28;20519;-70
2023/11/29 07:23:23;;;;;;;12.57;4.72;;;7.50;99.90;;;7.63;82.79;100014.84;5114453;28;20035;-70
2023/11/29 07:25:52;;;;;;;9.93;4.10;;;7.50;99.90;;;7.52;82.39;100027.22;5114023;28;20054;-70
2023/11/29 07:28:20;;;;;;;15.23;4.45;;;7.50;99.90;;;7.49;82.68;100014.94;5113695;28;20059;-70
2023/11/29 07:30:49;;;;;;;12.48;4.53;;;7.40;99.90;;;7.38;81.67;99995.72;5113991;28;20058;-70
2023/11/29 07:33:19;;;;;;;10.70;4.10;;;7.40;99.90;;;7.55;80.17;100021.94;5095605;28;20044;-70
2023/11/29 07:35:48;;;;;;;15.60;5.13;;;7.40;99.90;;;7.14;79.06;100027.41;5113746;28;20098;-70
2023/11/29 07:38:16;;;;;;;10.45;4.05;;;7.10;99.90;;;7.31;77.75;100038.72;5113579;28;20046;-70
2023/11/29 07:40:44;;;;;;;4.18;3.78;;;7.20;99.90;;;7.47;76.93;100031.63;5113565;28;20134;-70
2023/11/29 07:43:13;;;;;;;8.02;3.80;;;7.40;99.90;;;7.35;76.96;100045.72;5113959;28;20043;-70
2023/11/29 07:45:42;;;;;;;10.73;4.45;;;7.30;99.90;;;7.43;76.76;100046.56;5113968;28;20042;-70
2023/11/29 07:48:11;;;;;;;12.35;4.35;;;7.30;99.90;;;7.59;75.99;100045.59;5113301;28;20114;-70
2023/11/29 07:50:41;;;;;;;12.90;4.18;;;7.40;99.90;;;7.70;75.75;100053.44;5113557;28;20067;-70
2023/11/29 07:53:09;;;;;;;10.07;4.18;;;7.50;99.90;;;7.74;74.96;100053.38;5112698;28;20070;-70
2023/11/29 07:55:38;;;;;;;9.70;4.05;;;7.60;99.90;;;7.78;74.48;100055.13;5113512;28;20100;-70
2023/11/29 07:58:06;;;;;;;7.97;4.18;;;7.60;99.90;;;7.76;74.53;100048.13;5113433;28;20381;-70
2023/11/29 08:00:35;;;;;;;10.68;4.50;;;7.70;99.90;;;7.77;74.59;100079.69;5114301;28;20084;-70
2023/11/29 08:03:04;;;;;;;12.25;4.78;;;7.70;99.90;;;7.81;74.63;100052.47;5095176;28;20138;-69
2023/11/29 08:05:33;;;;;;;11.93;4.30;;;7.70;99.90;;;7.72;75.04;100065.72;5113139;28;20430;-69
2023/11/29 08:08:04;;;;;;;10.75;4.65;;;7.60;99.90;;;7.68;75.28;100066.59;5113086;28;20032;-70
2023/11/29 08:10:33;;;;;;;10.40;4.20;;;7.60;99.90;;;7.81;75.62;100073.53;5113328;28;20399;-70
2023/11/29 08:13:01;;;;;;;13.75;4.35;;;7.70;99.90;;;7.83;75.60;100097.22;5112974;28;20043;-69
2023/11/29 08:15:29;;;;;;;9.00;4.35;;;7.80;99.90;;;7.82;76.39;100088.44;5113016;28;20101;-69
2023/11/29 08:17:58;;;;;;;7.38;4.45;;;7.70;99.90;;;7.89;76.67;100098.06;5112875;28;20050;-70
2023/11/29 08:20:27;;;;;;;9.82;3.92;;;7.80;99.90;;;7.92;76.98;100092.75;5113469;28;20392;-70
2023/11/29 08:22:55;;;;;;;12.32;4.00;;;7.80;99.90;;;7.82;76.73;100098.97;5112978;28;20052;-70
2023/11/29 08:25:26;;;;;;;10.55;3.88;;;7.80;99.90;;;7.80;77.40;100119.16;5113463;28;20058;-70
2023/11/29 08:27:55;;;;;;;11.73;4.28;;;7.70;99.90;;;7.72;78.33;100120.09;5113327;28;20044;-70
2023/11/29 08:30:23;;;;;;;7.68;3.75;;;7.70;99.90;;;6.90;78.69;99980.19;5112795;28;20040;-70
2023/11/29 08:32:52;;;;;;;7.95;4.53;;;7.70;99.90;;;7.74;79.34;100123.59;5094881;28;20047;-69
2023/11/29 08:35:20;;;;;;;10.70;4.00;;;7.70;99.90;;;7.63;79.03;100107.84;5112835;28;20073;-69
2023/11/29 08:37:49;;;;;;;7.07;3.67;;;7.60;99.90;;;7.66;79.70;100113.09;5113069;28;20135;-69
2023/11/29 08:40:17;;;;;;;6.45;3.53;;;7.60;99.90;;;7.68;80.03;100115.72;5112832;28;20044;-69
2023/11/29 08:42:47;;;;;;;8.02;3.60;;;7.50;99.90;;;7.71;80.12;100123.59;5113355;28;20430;-70
2023/11/29 08:45:16;;;;;;;5.70;3.58;;;7.60;99.90;;;7.68;79.64;100113.09;5113115;28;20100;-70
2023/11/29 08:47:45;;;;;;;8.45;3.80;;;7.50;99.90;;;7.58;79.73;100121.91;5112699;28;20043;-70
2023/11/29 08:50:13;;;;;;;6.13;4.25;;;7.50;99.90;;;7.63;79.60;100122.75;5113022;28;20127;-69
2023/11/29 08:52:43;;;;;;;10.65;3.92;;;7.50;99.90;;;7.67;79.14;100130.63;5112958;28;20101;-69
2023/11/29 08:55:12;;;;;;;9.57;4.78;;;7.50;99.90;;;7.21;79.59;100136.94;5113313;28;20035;-69
2023/11/29 08:57:41;;;;;;;10.93;4.55;;;7.30;99.90;;;7.21;80.96;100136.94;5112531;28;20055;-69
2023/11/29 09:00:12;;;;;;;10.45;5.13;;;7.10;99.90;;;7.25;81.72;100134.31;5112850;28;20105;-69
2023/11/29 09:02:40;;;;;;;11.77;4.75;;;7.10;99.90;;;7.55;82.74;100138.56;5113465;28;20447;-70
2023/11/29 09:05:09;;;;;;;10.43;4.80;;;7.40;99.90;;;7.99;83.36;100139.22;5098515;28;20047;-70
2023/11/29 09:07:38;;;;;;;10.82;4.53;;;7.80;99.90;;;8.08;82.60;100139.19;5116454;28;20392;-69
2023/11/29 09:10:08;;;;;;;13.13;4.65;;;8.00;99.90;;;8.49;82.05;100154.75;5098449;28;20454;-70
2023/11/29 09:12:36;;;;;;;16.55;5.22;;;8.30;99.90;;;8.33;79.81;100146.94;5116696;28;20036;-69
2023/11/29 09:15:06;;;;;;;7.18;4.55;;;8.30;99.90;;;8.25;79.92;100154.03;5116703;28;20656;-70
2023/11/29 09:17:36;;;;;;;9.25;4.53;;;8.10;99.90;;;8.31;78.75;100149.59;5116714;28;20047;-70
2023/11/29 09:20:07;;;;;;;10.18;4.55;;;8.20;99.90;;;8.25;79.31;100140.84;5116240;28;20035;-70
2023/11/29 09:22:35;;;;;;;;;;;8.20;99.90;;;8.07;78.96;100161.13;5116693;28;20040;-71
2023/11/29 09:25:05;;;;;;;9.80;4.45;;;8.00;99.90;;;7.85;78.87;100153.34;5116274;28;19943;-71
2023/11/29 09:27:34;;;;;;;10.57;4.32;;;7.80;99.90;;;7.44;81.20;100164.06;5116674;28;20047;-71
2023/11/29 09:30:02;;;;;;;11.23;4.47;;;7.30;99.90;;;7.51;81.71;100172.81;5116484;28;20046;-70
2023/11/29 09:32:34;;;;;;;5.82;4.40;;;7.20;99.90;;;7.00;82.93;100168.53;5116128;28;20071;-70
2023/11/29 09:35:05;;;;;;;8.82;4.38;;;6.80;99.90;;;6.71;84.40;100151.94;5116325;28;20062;-70
2023/11/29 09:37:34;;;;;;;;;;;6.60;99.90;;;6.86;85.56;100163.31;5116310;28;20039;-70
2023/11/29 09:40:05;;;;;;;6.45;4.32;;;6.50;99.90;;;7.03;85.46;100173.78;5115825;28;19969;-70
2023/11/29 09:42:36;;;;;;;10.90;4.72;;;6.70;99.90;;;6.87;85.87;100172.06;5116526;28;20135;-70
2023/11/29 09:45:11;;;;;;;8.98;4.45;;;6.60;99.90;;;6.53;87.54;100159.81;5097398;28;20043;-70
2023/11/29 09:47:40;;;;;;;9.40;5.03;;;6.30;99.90;;;6.73;87.38;100171.19;5116087;28;20071;-69
2023/11/29 09:50:10;;;;;;;5.00;4.50;;;6.40;99.90;;;6.65;87.27;100163.31;5115946;28;20050;-71
2023/11/29 09:52:39;;;;;;;8.75;4.20;;;6.40;99.90;;;5.66;88.23;100040.69;5115722;28;20044;-70
2023/11/29 09:55:09;;;;;;;7.68;4.20;;;6.20;99.90;;;6.44;88.89;100165.94;5115767;28;20043;-70
2023/11/29 09:57:38;;;;;;;9.25;4.95;;;6.20;99.90;;;6.55;89.46;100158.94;5097389;28;20036;-70
2023/11/29 10:00:10;;;;;;;11.38;5.10;;;6.30;99.90;;;6.43;89.13;100176.47;5097651;28;20055;-70
2023/11/29 10:02:40;;;;;;;8.23;4.43;;;6.30;99.90;;;6.28;89.87;100165.06;5097311;28;20079;-70
2023/11/29 10:05:13;;;;;;;5.95;4.45;;;6.20;99.90;;;6.31;90.51;100183.41;5097333;28;20060;-70
2023/11/29 10:07:41;;;;;;;6.78;4.75;;;6.10;99.90;;;6.46;90.60;100187.84;5115994;28;20263;-71
2023/11/29 10:10:11;;;;;;;9.68;5.32;;;6.30;99.90;;;6.62;90.29;100176.44;5097224;28;20429;-70
2023/11/29 10:12:41;;;;;;;9.63;4.80;;;6.50;99.90;;;6.84;90.09;100179.94;5115215;28;20061;-70
2023/11/29 10:15:13;;;;;;;7.65;4.93;;;6.60;99.90;;;6.83;89.02;100179.06;5096542;28;20457;-70
2023/11/29 10:17:44;;;;;;;10.13;4.70;;;6.70;99.90;;;6.98;88.52;100189.59;5115303;28;20047;-70
2023/11/29 10:20:15;;;;;;;6.53;4.30;;;6.80;99.90;;;7.02;87.82;100178.19;5115077;28;20046;-70
2023/11/29 10:22:48;;;;;;;;;;;6.90;99.90;;;7.02;87.33;100169.41;5115526;28;20114;-70
2023/11/29 10:25:20;;;;;;;6.43;4.15;;;6.90;99.90;;;6.86;87.23;100159.78;5115297;28;20025;-70
2023/11/29 10:27:49;;;;;;;7.00;4.13;;;6.80;99.90;;;7.02;87.43;100169.41;5114938;28;20133;-69
2023/11/29 10:30:18;;;;;;;8.10;4.75;;;6.80;99.90;;;7.20;87.75;100183.41;5096621;28;20137;-70
2023/11/29 10:32:48;;;;;;;6.70;4.55;;;7.00;99.90;;;7.61;87.87;100180.66;5114833;28;20048;-70